Time;durP1;ratioP1;P1;durP2;ratioP2;P2;SDS_P1;SDS_P2;PMS_P1;PMS_P2;Temp;Humidity;BMP_temperature;BMP_pressure;BME280_temperature;BME280_humidity;BME280_pressure;Samples;Min_cycle;Max_cycle;Signal;HPM_P1;HPM_P2
2022/05/21 00:02:13;;;;;;;4.93;3.57;;;;;;;23.70;51.57;99135.44;6949330;28;20651;-82
2022/05/21 00:05:35;;;;;;;4.00;3.60;;;;;;;23.66;51.67;99140.69;6954301;28;20204;-82
2022/05/21 00:08:58;;;;;;;5.20;3.97;;;;;;;23.63;51.71;99143.19;6950697;28;20226;-82
2022/05/21 00:12:20;;;;;;;4.60;3.87;;;;;;;23.25;52.47;99143.88;6952052;28;20210;-82
2022/05/21 00:15:42;;;;;;;4.17;3.67;;;;;;;23.40;52.78;99141.88;6957199;28;20209;-82
2022/05/21 00:19:04;;;;;;;5.50;3.40;;;;;;;23.32;52.20;99127.88;6953495;28;20287;-81
2022/05/21 00:22:25;;;;;;;4.23;3.60;;;;;;;23.03;53.06;99162.56;6967549;28;20722;-82
2022/05/21 00:25:51;;;;;;;5.20;3.20;;;;;;;23.08;52.73;99152.38;6955193;28;20209;-81
2022/05/21 00:29:13;;;;;;;4.80;3.60;;;;;;;23.01;53.56;99154.56;6950774;28;20644;-83
2022/05/21 00:32:34;;;;;;;5.83;3.77;;;;;;;23.19;52.36;99151.28;6953266;28;20206;-82
2022/05/21 00:35:56;;;;;;;4.13;3.70;;;;;;;23.31;52.60;99157.31;6960202;28;20293;-83
2022/05/21 00:39:18;;;;;;;4.17;3.30;;;;;;;22.75;53.25;99161.22;6957681;28;20233;-82
2022/05/21 00:42:43;;;;;;;4.63;3.50;;;;;;;23.20;53.05;99176.88;6951185;28;20201;-82
2022/05/21 00:46:06;;;;;;;6.57;3.43;;;;;;;22.93;53.48;99184.56;6951486;28;20211;-82
2022/05/21 00:49:29;;;;;;;6.27;3.40;;;;;;;22.79;53.98;99192.56;6942542;28;20229;-81
2022/05/21 00:52:52;;;;;;;3.50;3.20;;;;;;;22.88;53.35;99160.66;6950886;28;20226;-82
2022/05/21 00:56:16;;;;;;;3.87;3.47;;;;;;;22.97;52.93;99185.66;6958472;28;20202;-82
2022/05/21 00:59:51;;;;;;;3.97;3.20;;;;;;;22.80;53.08;99194.19;6947423;28;20231;-81
2022/05/21 01:03:14;;;;;;;4.90;3.20;;;;;;;22.85;52.75;99199.72;6947162;28;20412;-82
2022/05/21 01:06:37;;;;;;;6.50;3.40;;;;;;;22.81;52.92;99206.00;6946012;28;20228;-81
2022/05/21 01:10:00;;;;;;;3.90;3.53;;;;;;;22.61;53.39;99206.81;6939825;28;20696;-81
2022/05/21 01:13:25;;;;;;;4.43;3.30;;;;;;;22.53;52.62;99218.34;6960621;28;20232;-81
2022/05/21 01:16:48;;;;;;;5.37;3.37;;;;;;;21.85;53.81;99202.19;6967065;28;20205;-82
2022/05/21 01:20:15;;;;;;;3.80;3.50;;;;;;;22.19;53.21;99199.84;6974937;28;20229;-85
2022/05/21 01:23:39;;;;;;;4.23;3.73;;;;;;;22.18;52.92;99215.47;6980474;28;20227;-82
2022/05/21 01:27:00;;;;;;;5.20;3.23;;;;;;;21.84;52.95;99210.69;6964573;28;20224;-81
2022/05/21 01:30:24;;;;;;;5.10;3.20;;;;;;;22.10;53.16;99213.25;6979018;28;20242;-84
2022/05/21 01:33:46;;;;;;;4.50;3.20;;;;;;;21.39;52.36;99095.16;6970739;28;20193;-86
2022/05/21 01:37:07;;;;;;;3.40;3.10;;;;;;;22.18;51.73;99237.44;6984704;28;20566;-81
2022/05/21 01:40:30;;;;;;;3.10;2.90;;;;;;;22.11;51.87;99228.66;6953501;28;20237;-81
2022/05/21 01:47:32;;;;;;;4.90;3.07;;;;;;;21.94;51.81;99250.00;6955993;28;20222;-82
2022/05/21 01:50:54;;;;;;;6.07;3.00;;;;;;;21.74;52.16;99249.06;6944854;28;20567;-81
2022/05/21 01:54:16;;;;;;;3.17;2.90;;;;;;;21.92;51.33;99248.59;6965576;28;20203;-81
2022/05/21 01:57:39;;;;;;;3.00;2.77;;;;;;;21.72;51.51;99249.31;6947768;28;20237;-82
2022/05/21 02:01:00;;;;;;;3.37;3.07;;;;;;;22.20;50.64;99267.41;6948943;28;20235;-81
2022/05/21 02:04:22;;;;;;;3.53;3.13;;;;;;;21.47;51.46;99240.06;6946113;28;20349;-81
2022/05/21 02:07:44;;;;;;;4.13;2.77;;;;;;;22.09;50.86;99279.44;6957150;28;20654;-82
2022/05/21 02:11:06;;;;;;;3.93;2.60;;;;;;;22.00;50.69;99281.88;6979181;28;20221;-82
2022/05/21 02:14:29;;;;;;;2.97;2.77;;;;;;;22.09;50.85;99287.69;6961545;28;20621;-81
2022/05/21 02:17:50;;;;;;;3.07;2.87;;;;;;;22.12;50.29;99293.47;6965370;28;20224;-82
2022/05/21 02:21:12;;;;;;;3.10;2.80;;;;;;;21.82;50.91;99290.56;6943881;28;20247;-82
2022/05/21 02:24:33;;;;;;;3.17;2.87;;;;;;;21.77;50.20;99276.78;6949495;28;20199;-82
2022/05/21 02:27:55;;;;;;;4.77;3.10;;;;;;;21.57;50.75;99300.50;6953546;28;20441;-81
2022/05/21 02:31:18;;;;;;;3.70;2.90;;;;;;;20.44;51.88;99250.66;6945044;28;20215;-81
2022/05/21 02:34:40;;;;;;;3.30;3.00;;;;;;;20.89;50.85;99266.75;6953646;28;20205;-81
2022/05/21 02:41:41;;;;;;;3.23;2.93;;;;;;;20.69;52.19;99326.84;6952418;28;20200;-82
2022/05/21 02:45:03;;;;;;;4.17;3.03;;;;;;;20.31;52.36;99299.53;6953610;28;20214;-82
2022/05/21 02:48:28;;;;;;;2.90;2.67;;;;;;;20.48;52.37;99320.28;6951165;28;20235;-82
2022/05/21 02:51:49;;;;;;;3.20;2.80;;;;;;;21.01;51.45;99333.22;6951436;28;20224;-82
2022/05/21 02:55:13;;;;;;;3.40;3.10;;;;;;;21.08;51.51;99322.84;6952759;28;20208;-81
2022/05/21 02:58:35;;;;;;;4.43;3.53;;;;;;;21.04;51.54;99333.53;6954907;28;20255;-82
2022/05/21 03:01:56;;;;;;;3.33;3.03;;;;;;;20.48;52.98;99323.03;6961763;28;20717;-82
2022/05/21 03:05:19;;;;;;;4.00;3.40;;;;;;;20.22;53.00;99315.56;6937586;28;20371;-82
2022/05/21 03:12:20;;;;;;;3.97;3.60;;;;;;;19.73;53.49;99348.50;6947758;28;20209;-82
2022/05/21 03:15:42;;;;;;;4.63;3.27;;;;;;;20.04;52.89;99336.94;6956854;28;20677;-81
2022/05/21 03:19:04;;;;;;;4.77;3.50;;;;;;;19.85;52.52;99339.13;6960551;28;20249;-81
2022/05/21 03:22:27;;;;;;;4.07;3.30;;;;;;;20.07;52.08;99342.75;6980537;28;20191;-81
2022/05/21 03:25:49;;;;;;;4.40;3.00;;;;;;;20.28;51.34;99354.81;6985058;28;20203;-81
2022/05/21 03:29:11;;;;;;;3.37;3.07;;;;;;;20.09;51.27;99337.84;6959080;28;20235;-82
2022/05/21 03:32:32;;;;;;;3.23;2.93;;;;;;;20.49;50.33;99345.75;6962057;28;20227;-83
2022/05/21 03:35:54;;;;;;;4.07;2.93;;;;;;;20.32;50.60;99351.31;6963587;28;20206;-82
2022/05/21 03:39:17;;;;;;;4.97;4.20;;;;;;;20.28;50.85;99354.81;6970570;28;20247;-81
2022/05/21 03:42:38;;;;;;;4.90;4.03;;;;;;;20.00;52.34;99350.31;6938589;28;20243;-82
2022/05/21 03:46:00;;;;;;;4.50;4.10;;;;;;;20.18;52.11;99358.25;6935511;28;20303;-82
2022/05/21 03:49:23;;;;;;;4.80;4.40;;;;;;;19.54;53.90;99355.31;6964650;28;20265;-81
2022/05/21 03:52:44;;;;;;;4.60;4.20;;;;;;;19.96;52.97;99359.25;6945173;28;20214;-81
2022/05/21 03:56:08;;;;;;;5.57;4.80;;;;;;;19.67;53.76;99372.22;6956111;28;20546;-82
2022/05/21 03:59:29;;;;;;;5.13;4.73;;;;;;;19.56;53.83;99364.09;6957994;28;20238;-82
2022/05/21 04:02:51;;;;;;;7.67;5.07;;;;;;;19.57;54.16;99363.03;6953070;28;20200;-81
2022/05/21 04:06:13;;;;;;;5.83;4.97;;;;;;;19.89;53.66;99381.34;6953374;28;20201;-82
2022/05/21 04:09:35;;;;;;;6.23;5.17;;;;;;;19.79;53.79;99391.28;6963808;28;20235;-81
2022/05/21 04:12:58;;;;;;;6.50;4.87;;;;;;;19.68;53.98;99386.72;6949922;28;20208;-81
2022/05/21 04:16:20;;;;;;;5.00;4.60;;;;;;;19.87;53.59;99393.63;6950129;28;20199;-82
2022/05/21 04:19:41;;;;;;;6.80;5.37;;;;;;;19.78;53.70;99392.38;6950689;28;20219;-81
2022/05/21 04:23:03;;;;;;;6.03;5.27;;;;;;;19.60;53.61;99392.63;6927981;28;20254;-82
2022/05/21 04:26:25;;;;;;;6.10;5.50;;;;;;;19.67;53.53;99377.69;6947604;28;20353;-81
2022/05/21 04:29:48;;;;;;;8.03;5.63;;;;;;;19.75;53.64;99387.41;6978302;28;20288;-81
2022/05/21 04:33:09;;;;;;;6.40;5.30;;;;;;;19.80;53.44;99402.00;6953025;28;20210;-81
2022/05/21 04:36:31;;;;;;;5.97;5.37;;;;;;;19.82;53.40;99388.06;6952084;28;20234;-81
2022/05/21 04:39:53;;;;;;;5.90;5.40;;;;;;;19.67;53.34;99374.97;6951711;28;20229;-81
2022/05/21 04:43:14;;;;;;;6.00;5.27;;;;;;;20.04;52.88;99408.94;6951788;28;20207;-81
2022/05/21 04:46:37;;;;;;;5.70;4.87;;;;;;;19.96;53.21;99412.09;6951420;28;20733;-83
2022/05/21 04:49:59;;;;;;;5.07;4.60;;;;;;;20.21;52.79;99390.59;6951102;28;20241;-81
2022/05/21 04:53:21;;;;;;;6.23;5.00;;;;;;;20.48;51.96;99404.38;6952182;28;20253;-81
2022/05/21 04:56:42;;;;;;;6.23;4.73;;;;;;;20.27;51.65;99406.00;6952191;28;20203;-81
2022/05/21 05:00:05;;;;;;;6.70;4.67;;;;;;;20.29;51.87;99392.06;6951825;28;20219;-79
2022/05/21 05:03:28;;;;;;;4.90;4.43;;;;;;;20.61;50.64;99402.09;6951166;28;20200;-82
2022/05/21 05:06:50;;;;;;;5.90;4.57;;;;;;;21.03;49.91;99416.88;6952433;28;20203;-81
2022/05/21 05:10:12;;;;;;;5.53;4.70;;;;;;;20.84;49.60;99423.75;6951833;28;20231;-82
2022/05/21 05:13:34;;;;;;;3.93;3.53;;;;;;;20.99;49.13;99423.16;6951627;28;20248;-81
2022/05/21 05:16:55;;;;;;;4.30;3.90;;;;;;;21.40;49.03;99404.94;6928285;28;20209;-82
2022/05/21 05:20:18;;;;;;;5.67;3.80;;;;;;;21.44;47.87;99408.81;6926146;28;20232;-80
2022/05/21 05:23:40;;;;;;;6.33;3.87;;;;;;;22.08;45.31;99377.47;6946064;28;20206;-82
2022/05/21 05:27:02;;;;;;;4.80;3.87;;;;;;;22.14;46.52;99403.88;6952071;28;20212;-83
2022/05/21 05:30:24;;;;;;;4.07;3.00;;;;;;;22.33;44.82;99396.88;6981535;28;20236;-81
2022/05/21 05:33:45;;;;;;;4.70;3.63;;;;;;;22.56;44.20;99415.72;6957919;28;20574;-81
2022/05/21 05:37:08;;;;;;;3.20;2.90;;;;;;;22.14;45.06;99403.88;6960047;28;20218;-82
2022/05/21 05:40:32;;;;;;;2.77;2.57;;;;;;;21.83;43.90;99358.09;6958655;28;20307;-78
2022/05/21 05:43:54;;;;;;;3.53;2.67;;;;;;;22.32;44.77;99416.38;6958596;28;20204;-82
2022/05/21 05:47:15;;;;;;;5.10;2.67;;;;;;;22.43;44.22;99415.38;6958341;28;20208;-82
2022/05/21 05:50:37;;;;;;;3.10;2.57;;;;;;;22.45;42.98;99407.69;6952075;28;20593;-80
2022/05/21 05:54:00;;;;;;;3.03;2.80;;;;;;;22.85;40.99;99383.13;6964480;28;20551;-81
2022/05/21 05:57:23;;;;;;;3.83;3.13;;;;;;;22.86;40.60;99413.09;6973546;28;20206;-81
2022/05/21 06:00:43;;;;;;;4.60;2.97;;;;;;;23.01;41.10;99420.59;6958886;28;20222;-81
2022/05/21 06:04:05;;;;;;;3.53;2.60;;;;;;;23.04;41.24;99401.63;6958003;28;20201;-83
2022/05/21 06:07:27;;;;;;;3.53;2.90;;;;;;;22.89;41.26;99381.50;6955986;28;20222;-82
2022/05/21 06:10:50;;;;;;;3.00;2.80;;;;;;;22.63;41.56;99408.06;6969857;28;20208;-81
2022/05/21 06:14:12;;;;;;;3.73;2.50;;;;;;;23.16;41.28;99426.09;6982348;28;20217;-82
2022/05/21 06:17:34;;;;;;;3.07;2.40;;;;;;;23.37;39.21;99431.41;6984755;28;20208;-79
2022/05/21 06:20:59;;;;;;;2.60;2.40;;;;;;;22.77;39.85;99413.91;6961671;28;20221;-80
2022/05/21 06:24:20;;;;;;;1.97;1.77;;;;;;;21.19;39.92;99353.69;6975156;28;20238;-80
2022/05/21 06:27:43;;;;;;;2.10;1.90;;;;;;;22.75;39.06;99427.06;6984145;28;20230;-80
2022/05/21 06:31:05;;;;;;;2.63;1.83;;;;;;;23.47;37.42;99416.84;6994028;28;20710;-85
2022/05/21 06:34:27;;;;;;;3.10;2.30;;;;;;;24.02;35.89;99431.47;6965583;28;20247;-81
2022/05/21 06:37:49;;;;;;;2.70;1.93;;;;;;;23.06;36.84;99395.84;6971752;28;20219;-84
2022/05/21 06:41:10;;;;;;;3.17;2.03;;;;;;;22.59;37.10;99406.94;6975809;28;20215;-84
2022/05/21 06:44:33;;;;;;;4.07;2.00;;;;;;;22.55;37.43;99421.50;6972002;28;20211;-82
2022/05/21 06:47:55;;;;;;;3.53;1.90;;;;;;;23.51;36.87;99427.06;6963836;28;20233;-83
2022/05/21 06:51:17;;;;;;;2.10;1.70;;;;;;;23.66;36.09;99421.53;6971560;28;20205;-81
2022/05/21 06:54:39;;;;;;;2.87;1.87;;;;;;;23.16;35.29;99296.78;6959030;28;20207;-82
2022/05/21 06:58:00;;;;;;;2.13;1.93;;;;;;;23.84;36.11;99432.00;6953499;28;20220;-81
2022/05/21 07:01:23;;;;;;;1.97;1.73;;;;;;;23.52;35.66;99373.63;6955703;28;20705;-80
2022/05/21 07:08:27;;;;;;;1.80;1.70;;;;;;;23.94;33.32;99437.56;6937949;28;20239;-80
2022/05/21 07:11:50;;;;;;;1.83;1.40;;;;;;;24.17;33.39;99419.63;6954085;28;20214;-80
2022/05/21 07:15:13;;;;;;;1.50;1.33;;;;;;;24.81;33.42;99434.38;6953713;28;20250;-81
2022/05/21 07:18:36;;;;;;;2.43;1.50;;;;;;;24.56;32.00;99432.50;6953010;28;20244;-79
2022/05/21 07:21:57;;;;;;;3.40;1.87;;;;;;;24.08;32.94;99415.78;6956715;28;20637;-82
2022/05/21 07:25:23;;;;;;;1.90;1.67;;;;;;;24.08;34.16;99435.88;6970281;28;20228;-79
2022/05/21 07:28:44;;;;;;;6.30;1.63;;;;;;;24.41;31.99;99385.66;6954619;28;20230;-84
2022/05/21 07:32:07;;;;;;;2.47;1.20;;;;;;;24.05;31.95;99424.59;6947044;28;20205;-78
2022/05/21 07:35:30;;;;;;;3.20;1.40;;;;;;;24.11;32.52;99426.25;6954474;28;20211;-79
2022/05/21 07:38:52;;;;;;;2.90;1.40;;;;;;;24.84;32.56;99407.03;6942810;28;20224;-79
2022/05/21 07:42:13;;;;;;;2.83;1.17;;;;;;;25.30;31.78;99397.44;6951726;28;20211;-79
2022/05/21 07:45:38;;;;;;;3.67;1.70;;;;;;;24.37;33.80;99412.13;6951523;28;20355;-80
2022/05/21 07:49:00;;;;;;;2.73;1.50;;;;;;;24.42;33.67;99414.88;6952369;28;20238;-79
2022/05/21 07:52:26;;;;;;;1.30;1.20;;;;;;;25.31;32.62;99365.97;6952010;28;20222;-79
2022/05/21 07:55:50;;;;;;;2.33;1.47;;;;;;;24.87;33.16;99389.94;6952747;28;20214;-80
2022/05/21 07:59:12;;;;;;;2.10;1.77;;;;;;;24.56;33.36;99393.91;6944819;28;20222;-80
2022/05/21 08:02:33;;;;;;;1.73;1.40;;;;;;;24.34;34.75;99385.16;6948884;28;20211;-78
2022/05/21 08:05:55;;;;;;;6.20;2.80;;;;;;;25.55;33.32;99397.25;6950267;28;20210;-79
2022/05/21 08:09:18;;;;;;;4.23;1.93;;;;;;;24.64;33.51;99407.13;6949129;28;20234;-79
2022/05/21 08:12:40;;;;;;;5.73;2.23;;;;;;;25.87;33.67;99408.63;6951825;28;20210;-79
2022/05/21 08:16:01;;;;;;;2.47;1.53;;;;;;;26.14;31.19;99406.16;6952183;28;20207;-78
2022/05/21 08:19:23;;;;;;;6.43;2.30;;;;;;;25.53;32.09;99399.50;6950976;28;20260;-80
2022/05/21 08:30:06;;;;;;;5.03;1.43;;;;;;;24.43;32.50;99399.19;6927917;28;20315;-79
2022/05/21 08:33:28;;;;;;;2.37;1.60;;;;;;;24.53;34.09;99413.75;6951055;28;20199;-79
2022/05/21 08:36:50;;;;;;;2.00;1.20;;;;;;;24.26;32.90;99395.91;6950999;28;20205;-79
2022/05/21 08:40:15;;;;;;;0.93;0.93;;;;;;;25.19;33.16;99386.72;6950601;28;20235;-79
2022/05/21 08:43:51;;;;;;;2.20;1.40;;;;;;;26.09;31.57;99386.06;6923453;28;20226;-79
2022/05/21 08:47:19;;;;;;;1.53;1.30;;;;;;;26.53;31.62;99403.25;6923099;28;20188;-79
2022/05/21 08:50:46;;;;;;;4.63;1.30;;;;;;;26.90;29.97;99398.69;6924319;28;20322;-79
2022/05/21 08:54:08;;;;;;;2.13;1.30;;;;;;;26.86;29.79;99392.13;6928739;28;20641;-80
2022/05/21 08:57:35;;;;;;;1.93;1.23;;;;;;;25.43;32.33;99396.00;6950797;28;20203;-81
2022/05/21 09:00:58;;;;;;;2.50;1.17;;;;;;;26.02;31.46;99393.88;6951233;28;20183;-79
2022/05/21 09:04:23;;;;;;;1.40;1.07;;;;;;;26.54;31.05;99377.31;6951329;28;20246;-84
2022/05/21 09:07:50;;;;;;;1.70;1.33;;;;;;;26.00;31.35;99383.09;6951045;28;20665;-78
2022/05/21 09:11:14;;;;;;;2.87;1.20;;;;;;;26.14;30.91;99373.00;6951661;28;20200;-82
2022/05/21 09:14:41;;;;;;;2.10;1.20;;;;;;;27.24;29.73;99357.03;6952426;28;20207;-81
2022/05/21 09:18:03;;;;;;;0.80;0.80;;;;;;;27.98;29.45;99395.72;6952676;28;20356;-80
2022/05/21 09:21:26;;;;;;;1.47;1.30;;;;;;;27.56;28.84;99390.31;6951541;28;20660;-82
2022/05/21 09:24:51;;;;;;;2.33;1.40;;;;;;;27.08;29.74;99392.34;6970667;28;20191;-83
2022/05/21 09:28:12;;;;;;;5.53;2.00;;;;;;;25.53;31.96;99382.91;6964625;28;20231;-80
2022/05/21 09:31:34;;;;;;;1.27;1.10;;;;;;;27.14;30.16;99370.97;6953518;28;20253;-79
2022/05/21 09:35:07;;;;;;;1.70;1.20;;;;;;;27.02;30.11;99368.63;6950805;28;20208;-79
2022/05/21 09:38:31;;;;;;;3.37;1.60;;;;;;;27.71;30.20;99365.13;6955856;28;20250;-81
2022/05/21 09:42:10;;;;;;;1.93;1.50;;;;;;;28.42;28.35;99371.09;6972652;28;20213;-80
2022/05/21 09:45:32;;;;;;;4.87;1.80;;;;;;;26.22;30.88;99360.47;6944902;28;20206;-79
2022/05/21 09:48:55;;;;;;;2.43;1.60;;;;;;;27.53;30.46;99360.41;6947240;28;20233;-80
2022/05/21 09:52:25;;;;;;;1.67;1.20;;;;;;;28.78;28.49;99358.94;6952894;28;20688;-80
2022/05/21 09:55:57;;;;;;;2.50;1.30;;;;;;;27.58;29.91;99354.78;6953063;28;20202;-81
2022/05/21 09:59:21;;;;;;;1.30;1.20;;;;;;;27.51;29.84;99346.88;6948436;28;20227;-81
2022/05/21 10:02:44;;;;;;;1.20;1.10;;;;;;;28.31;28.54;99350.19;6925956;28;20258;-81
2022/05/21 10:06:10;;;;;;;3.50;1.50;;;;;;;28.23;29.09;99354.50;6926125;28;20229;-81
2022/05/21 10:13:18;;;;;;;1.60;1.50;;;;;;;27.25;29.63;99334.53;6955249;28;20185;-82
2022/05/21 10:16:45;;;;;;;1.50;1.27;;;;;;;27.17;30.05;99346.31;6955303;28;20204;-81
2022/05/21 10:20:13;;;;;;;1.20;1.10;;;;;;;27.26;29.71;99344.50;6952316;28;20225;-81
2022/05/21 10:23:38;;;;;;;2.17;1.33;;;;;;;28.03;30.44;99327.16;6952278;28;20607;-82
2022/05/21 10:27:06;;;;;;;2.90;1.80;;;;;;;26.30;32.42;99335.78;6952368;28;20911;-79
2022/05/21 10:30:32;;;;;;;1.97;1.40;;;;;;;26.93;30.69;99289.31;6956017;28;20281;-79
2022/05/21 10:34:03;;;;;;;1.90;1.20;;;;;;;26.44;31.91;99275.06;6957053;28;20200;-79
2022/05/21 10:37:52;;;;;;;2.13;1.57;;;;;;;26.06;31.65;99337.72;6967811;28;20207;-80
2022/05/21 10:41:20;;;;;;;2.87;1.40;;;;;;;26.16;32.29;99314.66;6946981;28;20222;-79
2022/05/21 10:44:54;;;;;;;1.70;1.27;;;;;;;27.41;30.87;99324.88;6954223;28;20331;-79
2022/05/21 10:48:49;;;;;;;4.13;1.50;;;;;;;27.80;30.34;99325.34;6955231;28;20231;-79
2022/05/21 10:52:15;;;;;;;0.90;0.90;;;;;;;28.48;29.03;99294.94;6941461;28;20258;-79
2022/05/21 10:55:41;;;;;;;2.77;1.23;;;;;;;28.43;29.42;99306.94;6954164;28;20196;-77
2022/05/21 10:59:13;;;;;;;1.50;1.40;;;;;;;28.29;29.31;99300.56;6954169;28;20763;-81
2022/05/21 11:03:11;;;;;;;1.50;1.10;;;;;;;27.33;29.46;99305.34;6936393;28;20290;-79
2022/05/21 11:07:03;;;;;;;1.37;1.27;;;;;;;28.07;29.61;99288.53;6934082;28;20222;-79
2022/05/21 11:10:30;;;;;;;2.30;1.20;;;;;;;28.65;29.29;99276.50;6942255;28;20242;-79
2022/05/21 11:13:57;;;;;;;5.00;1.07;;;;;;;28.78;28.37;99289.53;6958571;28;20208;-79
2022/05/21 11:17:31;;;;;;;1.43;1.33;;;;;;;27.01;30.29;99214.75;6958988;28;20216;-79
2022/05/21 11:21:01;;;;;;;3.70;1.27;;;;;;;28.71;27.56;99294.69;6961341;28;20236;-80
2022/05/21 11:24:29;;;;;;;1.93;1.37;;;;;;;28.69;27.83;99271.16;6981927;28;20202;-82
2022/05/21 11:27:56;;;;;;;3.43;1.50;;;;;;;27.87;30.01;99273.13;6974556;28;20225;-79
2022/05/21 11:37:19;;;;;;;2.30;1.20;;;;;;;27.93;28.41;99293.22;6964051;28;20227;-79
2022/05/21 11:38:49;;;;;;;2.60;1.30;;;;;;;27.24;30.79;99290.56;6966370;28;20229;-79
2022/05/21 11:42:14;;;;;;;2.90;1.37;;;;;;;28.45;29.36;99288.06;6957580;28;20289;-79
2022/05/21 11:45:36;;;;;;;2.57;1.57;;;;;;;27.44;30.01;99288.28;6977033;28;20231;-80
2022/05/21 11:48:58;;;;;;;2.60;1.63;;;;;;;25.89;32.18;99278.47;6969466;28;20596;-81
2022/05/21 11:53:08;;;;;;;1.50;1.10;;;;;;;27.14;31.58;99282.38;6959495;28;20208;-79
2022/05/21 11:56:59;;;;;;;4.33;1.33;;;;;;;27.38;30.18;99272.88;6952587;28;20206;-80
2022/05/21 12:00:45;;;;;;;4.50;1.43;;;;;;;28.44;28.57;99267.00;6952028;28;20244;-80
2022/05/21 12:04:08;;;;;;;2.13;1.30;;;;;;;27.73;29.09;99266.69;6952170;28;20189;-80
2022/05/21 12:07:59;;;;;;;3.27;1.40;;;;;;;28.49;28.85;99255.75;6924466;28;20213;-79
2022/05/21 12:11:43;;;;;;;1.43;1.20;;;;;;;28.27;28.92;99249.28;6951017;28;20219;-79
2022/05/21 12:15:14;;;;;;;1.77;1.47;;;;;;;27.50;29.24;99262.13;6951282;28;20219;-79
2022/05/21 12:19:35;;;;;;;1.67;1.13;;;;;;;28.98;27.29;99260.53;7045408;27;20544;-82
2022/05/21 12:22:59;;;;;;;3.00;1.60;;;;;;;28.78;27.53;99259.00;7016267;22;20239;-80
2022/05/21 12:26:22;;;;;;;3.27;1.40;;;;;;;29.10;26.82;99256.06;6971414;28;20259;-80
2022/05/21 12:29:45;;;;;;;1.80;1.33;;;;;;;27.96;28.60;99256.59;6973094;28;20238;-80
2022/05/21 12:33:18;;;;;;;1.97;1.27;;;;;;;27.82;29.27;99231.63;6970824;28;20232;-80
2022/05/21 12:37:04;;;;;;;1.97;1.37;;;;;;;28.36;28.46;99247.44;6972789;28;20263;-79
2022/05/21 12:40:36;;;;;;;3.70;1.30;;;;;;;28.57;28.64;99252.28;6940975;28;20274;-79
2022/05/21 12:43:58;;;;;;;2.37;1.10;;;;;;;28.47;27.88;99221.13;6949394;28;20293;-80
2022/05/21 12:47:28;;;;;;;2.10;1.33;;;;;;;27.24;29.19;99240.72;6958469;28;20201;-81
2022/05/21 12:50:51;;;;;;;1.40;1.30;;;;;;;28.51;28.10;99233.25;6957691;28;20232;-79
2022/05/21 12:54:25;;;;;;;1.83;1.03;;;;;;;28.12;28.74;99244.03;6970714;28;20208;-80
2022/05/21 12:57:50;;;;;;;1.67;1.23;;;;;;;28.55;27.98;99218.44;6972362;28;20353;-81
2022/05/21 13:01:23;;;;;;;1.73;1.33;;;;;;;28.91;27.62;99226.78;6972339;28;20210;-80
2022/05/21 13:04:48;;;;;;;0.97;0.90;;;;;;;29.22;27.07;99219.38;6972787;28;20209;-80
2022/05/21 13:08:12;;;;;;;2.17;1.40;;;;;;;29.20;27.04;99228.00;6968119;28;20229;-81
2022/05/21 13:11:41;;;;;;;2.40;1.67;;;;;;;27.69;28.33;99199.16;6968692;28;20225;-81
2022/05/21 13:15:05;;;;;;;2.13;1.60;;;;;;;27.63;28.59;99208.69;6972930;28;20211;-80
2022/05/21 13:18:36;;;;;;;2.10;1.60;;;;;;;28.79;27.84;99219.00;6970313;28;20261;-79
2022/05/21 13:22:02;;;;;;;2.57;1.50;;;;;;;28.23;27.94;99215.81;6969558;28;20271;-78
2022/05/21 13:25:25;;;;;;;1.20;1.10;;;;;;;27.30;29.01;99220.13;6967258;28;20237;-77
2022/05/21 13:28:47;;;;;;;3.93;1.60;;;;;;;27.76;27.99;99221.72;6959745;28;20232;-80
2022/05/21 13:32:21;;;;;;;1.97;1.70;;;;;;;27.98;28.30;99223.81;6950400;28;20236;-78
2022/05/21 13:35:44;;;;;;;2.37;1.37;;;;;;;27.55;29.32;99203.84;6950118;28;20210;-78
2022/05/21 13:39:06;;;;;;;3.60;1.63;;;;;;;26.90;29.62;99229.84;6948522;28;20378;-77
2022/05/21 13:42:28;;;;;;;1.47;1.27;;;;;;;27.64;29.38;99226.13;6949075;28;20200;-78
2022/05/21 13:45:53;;;;;;;2.47;1.30;;;;;;;27.87;28.64;99230.69;6949231;28;20208;-78
2022/05/21 13:49:20;;;;;;;2.33;1.43;;;;;;;27.09;29.47;99203.00;6945237;28;20707;-78
2022/05/21 13:52:42;;;;;;;3.33;1.53;;;;;;;27.93;28.49;99218.38;6946077;28;20204;-78
2022/05/21 13:56:06;;;;;;;2.27;1.40;;;;;;;27.09;29.65;99211.31;6948093;28;20206;-78
2022/05/21 13:59:27;;;;;;;1.80;1.40;;;;;;;26.83;29.74;99223.09;6951053;28;20255;-75
2022/05/21 14:02:51;;;;;;;1.33;1.20;;;;;;;26.92;29.04;99226.78;6951331;28;20215;-79
2022/05/21 14:06:17;;;;;;;3.60;1.40;;;;;;;26.77;30.17;99214.00;6962146;28;20211;-80
2022/05/21 14:09:45;;;;;;;1.73;1.17;;;;;;;27.49;29.13;99207.03;6952687;28;20239;-79
2022/05/21 14:13:08;;;;;;;2.30;1.27;;;;;;;28.06;28.92;99196.19;6928864;28;20217;-80
2022/05/21 14:16:32;;;;;;;2.53;1.43;;;;;;;27.33;29.36;99189.88;6954743;28;20717;-80
2022/05/21 14:20:10;;;;;;;4.00;2.00;;;;;;;26.70;30.82;99196.13;6952716;28;20223;-80
2022/05/21 14:23:36;;;;;;;2.27;1.40;;;;;;;27.19;29.13;99199.25;6941268;28;20223;-80
2022/05/21 14:26:59;;;;;;;4.50;1.40;;;;;;;27.69;29.04;99176.16;6954000;28;20207;-79
2022/05/21 14:30:30;;;;;;;1.87;1.50;;;;;;;26.22;30.17;99180.78;6952625;28;20316;-80
2022/05/21 14:33:53;;;;;;;4.30;1.33;;;;;;;25.96;30.66;99185.00;6953398;28;20684;-79
2022/05/21 14:37:24;;;;;;;1.90;1.20;;;;;;;26.68;29.98;99160.50;6952333;28;20240;-82
2022/05/21 14:40:50;;;;;;;3.77;1.70;;;;;;;27.12;30.23;99166.38;6939266;28;20228;-81
2022/05/21 14:44:18;;;;;;;2.00;1.30;;;;;;;27.12;29.93;99163.63;6951156;28;20206;-81
2022/05/21 14:47:54;;;;;;;2.73;1.37;;;;;;;26.21;30.61;99141.25;6952576;28;20214;-81
2022/05/21 14:54:58;;;;;;;1.77;1.43;;;;;;;27.40;28.72;99139.59;6933871;28;20781;-81
2022/05/21 14:58:21;;;;;;;2.87;1.67;;;;;;;26.20;30.57;99124.97;6951277;28;20229;-80
2022/05/21 15:01:43;;;;;;;5.53;1.63;;;;;;;26.68;29.75;99137.53;6952070;28;20208;-80
2022/05/21 15:05:05;;;;;;;1.67;1.50;;;;;;;27.00;29.63;99132.81;6939635;28;20216;-80
2022/05/21 15:08:34;;;;;;;2.37;1.47;;;;;;;26.72;29.83;99121.97;6951821;28;20319;-80
2022/05/21 15:11:56;;;;;;;1.53;1.40;;;;;;;27.29;28.80;99118.75;6952072;28;20194;-81
2022/05/21 15:15:21;;;;;;;1.27;1.17;;;;;;;27.49;28.28;99138.56;6950986;28;20213;-81
2022/05/21 15:18:43;;;;;;;2.50;1.30;;;;;;;27.02;29.26;99133.34;6949913;28;20234;-80
2022/05/21 15:22:06;;;;;;;3.07;1.30;;;;;;;26.65;29.72;99127.88;6943320;28;20219;-80
2022/05/21 15:25:28;;;;;;;1.33;1.20;;;;;;;26.88;29.47;99109.50;6952108;28;20637;-80
2022/05/21 15:28:49;;;;;;;2.33;1.27;;;;;;;27.03;29.01;99110.09;6951390;28;20226;-81
2022/05/21 15:32:13;;;;;;;2.03;1.40;;;;;;;26.61;29.74;99110.25;6952676;28;20214;-81
2022/05/21 15:35:35;;;;;;;2.80;1.23;;;;;;;25.91;30.24;99116.81;6949975;28;20210;-83
2022/05/21 15:38:57;;;;;;;2.77;1.50;;;;;;;25.99;29.87;99126.34;6951502;28;20242;-81
2022/05/21 15:42:21;;;;;;;6.07;1.80;;;;;;;25.93;29.84;99105.44;6952626;28;20206;-80
2022/05/21 15:45:43;;;;;;;1.20;1.10;;;;;;;26.00;29.79;99115.03;6952317;28;20213;-80
2022/05/21 15:49:06;;;;;;;2.03;1.43;;;;;;;26.40;29.60;99114.44;6937625;28;20302;-81
2022/05/21 15:52:31;;;;;;;3.47;2.40;;;;;;;26.26;30.08;99118.25;6946778;28;20300;-83
2022/05/21 15:55:54;;;;;;;4.43;2.57;;;;;;;27.18;29.13;99103.47;6952207;28;20692;-82
2022/05/21 15:59:16;;;;;;;2.97;1.73;;;;;;;27.52;28.50;99103.91;6953656;28;20247;-83
2022/05/21 16:02:37;;;;;;;2.10;1.80;;;;;;;27.49;28.82;99105.34;6953333;28;20204;-83
2022/05/21 16:06:01;;;;;;;2.00;1.43;;;;;;;27.02;29.36;99094.56;6952224;28;20240;-81
2022/05/21 16:09:22;;;;;;;1.87;1.60;;;;;;;27.01;29.86;99081.06;6951777;28;20231;-82
2022/05/21 16:12:44;;;;;;;2.10;1.57;;;;;;;26.75;29.40;99069.63;6952162;28;20282;-80
2022/05/21 16:16:06;;;;;;;4.07;1.70;;;;;;;26.74;29.23;99075.44;6950454;28;20294;-85
2022/05/21 16:19:28;;;;;;;3.63;2.20;;;;;;;26.73;29.42;99069.09;6951034;28;20237;-83
2022/05/21 16:22:51;;;;;;;102.03;57.87;;;;;;;27.13;29.70;99064.78;6946329;28;20211;-83
2022/05/21 16:26:13;;;;;;;5.43;3.50;;;;;;;27.24;28.68;99056.00;6952797;28;20200;-85
2022/05/21 16:29:36;;;;;;;4.60;3.10;;;;;;;27.16;28.32;99066.94;6925194;28;20225;-84
2022/05/21 16:32:58;;;;;;;72.97;56.90;;;;;;;26.18;30.57;99067.22;6927615;28;20746;-84
2022/05/21 16:36:19;;;;;;;6.53;5.93;;;;;;;26.39;30.32;99064.94;6954611;28;20199;-84
2022/05/21 16:39:43;;;;;;;10.40;8.07;;;;;;;26.15;30.59;99048.47;6965943;28;20234;-83